NCAR-RAP Real-Time Weather Data

Output produced by METARs form (01 October 2022  04:45 UTC)
found at http://weather.rap.ucar.edu/surface/
 
VLVT 010430Z 16010KT 8000 SCT016 BKN040 29/26 Q1009 NOSIG
VLVT 010400Z 14008KT 8000 SCT016 BKN040 30/27 Q1009 NOSIG
VLVT 010330Z 12006KT 7000 BKN016 BKN040 29/26 Q1009 NOSIG
VLVT 010300Z 12006KT 7000 BKN010 BKN083 29/28 Q1009 NOSIG
VLVT 010230Z 12002KT 7000 DZ BKN010 BKN083 26/26 Q1009 NOSIG
VLVT 010200Z 12004KT 7000 RA BKN010 OVC083 25/25 Q1009 NOSIG
VLVT 010130Z 12004KT 6000 RA BKN010 OVC083 25/25 Q1009 NOSIG
VLVT 010100Z 14004KT 6000 RA BKN010 OVC083 25/25 Q1009 NOSIG
VLVT 010030Z 12008KT 6000 DZ BKN010 OVC083 24/24 Q1008 NOSIG
VLVT 010000Z 16006KT 2000 RA BKN010 OVC083 25/25 Q1008 NOSIG
VLVT 302330Z 14006KT 2000 RA BKN010 OVC083 25/25 Q1007 NOSIG
VLVT 302300Z 18004KT 2000 RA BKN010 OVC083 25/25 Q1007 NOSIG